createdAt,value
2019-03-06T00:00:36.851Z,88.07
2019-03-06T00:01:36.848Z,86.72
2019-03-06T00:02:36.828Z,87.38
2019-03-06T00:03:36.808Z,86.96
2019-03-06T00:04:36.803Z,86.96
2019-03-06T00:05:36.791Z,86.09
2019-03-06T00:06:36.804Z,86.24
2019-03-06T00:07:36.774Z,86.03
2019-03-06T00:08:36.762Z,86.13
2019-03-06T00:09:36.745Z,86.55
2019-03-06T00:10:36.740Z,86.51
2019-03-06T00:11:36.746Z,85.61
2019-03-06T00:12:36.716Z,85.78
2019-03-06T00:13:36.700Z,84.95
2019-03-06T00:14:36.693Z,85.68
2019-03-06T00:15:36.679Z,85.26
2019-03-06T00:16:36.677Z,84.99
2019-03-06T00:17:36.653Z,86.09
2019-03-06T00:18:36.646Z,85.78
2019-03-06T00:19:36.644Z,85.57
2019-03-06T00:20:36.626Z,85.78
2019-03-06T00:21:36.630Z,84.84
2019-03-06T00:22:36.605Z,85.05
2019-03-06T00:23:36.589Z,84.84
2019-03-06T00:24:36.581Z,84.50
2019-03-06T00:25:36.566Z,83.98
2019-03-06T00:26:36.595Z,83.67
2019-03-06T00:27:36.544Z,83.87
2019-03-06T00:28:36.529Z,83.46
2019-03-06T00:29:36.539Z,83.98
2019-03-06T00:30:36.524Z,83.77
2019-03-06T00:31:36.510Z,83.87
2019-03-06T00:32:36.539Z,83.56
2019-03-06T00:33:36.483Z,83.36
2019-03-06T00:34:36.468Z,83.56
2019-03-06T00:35:36.466Z,83.46
2019-03-06T00:36:36.457Z,83.81
2019-03-06T00:37:36.459Z,84.08
2019-03-06T00:38:36.420Z,83.67
2019-03-06T00:39:36.414Z,83.67
2019-03-06T00:40:36.398Z,83.67
2019-03-06T00:41:36.394Z,84.08
2019-03-06T00:42:36.395Z,83.60
2019-03-06T00:43:36.369Z,84.01
2019-03-06T00:44:36.374Z,84.01
2019-03-06T00:45:36.350Z,84.12
2019-03-06T00:46:36.332Z,84.64
2019-03-06T00:47:36.334Z,84.12
2019-03-06T00:48:36.315Z,84.01
2019-03-06T00:49:36.322Z,83.50
2019-03-06T00:50:36.283Z,83.91
2019-03-06T00:51:36.270Z,82.87
2019-03-06T00:52:36.278Z,83.29
2019-03-06T00:53:36.259Z,83.60
2019-03-06T00:54:36.240Z,83.50
2019-03-06T00:55:36.248Z,83.70
2019-03-06T00:56:36.211Z,83.91
2019-03-06T00:57:36.204Z,82.46
2019-03-06T00:58:36.208Z,82.15
2019-03-06T00:59:36.200Z,82.77
2019-03-06T01:00:36.192Z,82.35
2019-03-06T01:01:36.158Z,82.56
2019-03-06T01:02:36.155Z,83.18
2019-03-06T01:03:36.175Z,83.39
2019-03-06T01:04:36.135Z,82.46
2019-03-06T01:05:36.116Z,83.08
2019-03-06T01:06:36.102Z,81.94
2019-03-06T01:07:36.096Z,81.84
2019-03-06T01:08:36.156Z,81.63
2019-03-06T01:09:36.073Z,81.84
2019-03-06T01:11:37.075Z,81.70
2019-03-06T01:12:36.040Z,81.84
2019-03-06T01:13:36.050Z,81.90
2019-03-06T01:14:36.017Z,81.18
2019-03-06T01:15:36.011Z,81.28
2019-03-06T01:16:35.992Z,81.18
2019-03-06T01:17:35.985Z,81.59
2019-03-06T01:18:35.995Z,81.18
2019-03-06T01:19:35.956Z,81.49
2019-03-06T01:20:35.959Z,80.76
2019-03-06T01:21:35.940Z,81.32
2019-03-06T01:22:35.930Z,81.84
2019-03-06T01:23:35.933Z,81.70
2019-03-06T01:24:35.906Z,82.01
2019-03-06T01:25:35.894Z,81.11
2019-03-06T01:26:35.880Z,81.63
2019-03-06T01:27:35.872Z,81.84
2019-03-06T01:28:35.879Z,81.94
2019-03-06T01:29:35.848Z,82.35
2019-03-06T01:30:35.837Z,81.84
2019-03-06T01:31:35.826Z,81.73
2019-03-06T01:32:35.817Z,81.73
2019-03-06T01:33:35.827Z,82.04
2019-03-06T01:34:35.790Z,82.46
2019-03-06T01:35:35.781Z,81.94
2019-03-06T01:36:35.774Z,81.84
2019-03-06T01:37:35.760Z,82.67
2019-03-06T01:38:35.776Z,82.87
2019-03-06T01:39:35.758Z,83.29
2019-03-06T01:40:35.726Z,82.87
2019-03-06T01:41:35.713Z,82.98
2019-03-06T01:42:35.733Z,82.91
2019-03-06T01:43:35.699Z,83.33
2019-03-06T01:44:35.720Z,82.91
2019-03-06T01:45:35.672Z,83.22
2019-03-06T01:46:35.658Z,83.22
2019-03-06T01:47:35.655Z,83.01
2019-03-06T01:48:35.634Z,83.58
2019-03-06T01:49:35.654Z,83.64
2019-03-06T01:50:35.648Z,83.64
2019-03-06T01:51:35.601Z,83.68
2019-03-06T01:52:35.610Z,83.64
2019-03-06T01:53:35.576Z,83.53
2019-03-06T01:54:35.585Z,83.89
2019-03-06T01:55:35.562Z,83.58
2019-03-06T01:56:35.551Z,84.16
2019-03-06T01:57:35.540Z,83.26
2019-03-06T01:58:35.523Z,84.20
2019-03-06T01:59:35.532Z,84.30
2019-03-06T02:00:35.500Z,83.99
2019-03-06T02:01:35.559Z,84.20
2019-03-06T02:02:35.475Z,83.78
2019-03-06T02:03:35.465Z,84.20
2019-03-06T02:04:35.481Z,84.09
2019-03-06T02:05:35.449Z,83.99
2019-03-06T02:06:35.434Z,84.82
2019-03-06T02:07:35.427Z,84.61
2019-03-06T02:08:35.408Z,84.61
2019-03-06T02:09:35.420Z,84.92
2019-03-06T02:10:35.392Z,84.92
2019-03-06T02:11:35.385Z,84.92
2019-03-06T02:12:35.366Z,85.17
2019-03-06T02:13:35.358Z,85.13
2019-03-06T02:14:35.378Z,85.13
2019-03-06T02:15:35.334Z,84.75
2019-03-06T02:16:35.331Z,84.92
2019-03-06T02:17:35.314Z,85.06
2019-03-06T02:18:35.300Z,84.86
2019-03-06T02:19:35.304Z,84.86
2019-03-06T02:20:35.313Z,84.75
2019-03-06T02:21:35.265Z,84.96
2019-03-06T02:22:35.282Z,85.17
2019-03-06T02:23:35.243Z,85.49
2019-03-06T02:24:35.248Z,85.49
2019-03-06T02:25:35.220Z,85.80
2019-03-06T02:26:35.212Z,85.90
2019-03-06T02:27:35.222Z,85.59
2019-03-06T02:28:35.189Z,85.69
2019-03-06T02:29:35.211Z,86.32
2019-03-06T02:30:35.172Z,86.11
2019-03-06T02:31:35.170Z,86.00
2019-03-06T02:32:35.151Z,86.11
2019-03-06T02:33:35.133Z,86.11
2019-03-06T02:34:35.125Z,85.90
2019-03-06T02:35:35.152Z,86.11
2019-03-06T02:36:35.105Z,86.15
2019-03-06T02:37:35.088Z,85.59
2019-03-06T02:38:35.086Z,86.25
2019-03-06T02:39:35.061Z,86.25
2019-03-06T02:40:35.103Z,86.21
2019-03-06T02:41:35.045Z,86.15
2019-03-06T02:42:35.049Z,86.35
2019-03-06T02:43:35.027Z,86.15
2019-03-06T02:44:35.025Z,86.21
2019-03-06T02:45:35.029Z,86.67
2019-03-06T02:46:34.993Z,86.63
2019-03-06T02:47:34.983Z,86.63
2019-03-06T02:48:34.964Z,87.35
2019-03-06T02:49:34.971Z,87.81
2019-03-06T02:50:34.969Z,87.40
2019-03-06T02:51:34.940Z,87.35
2019-03-06T02:52:34.932Z,87.60
2019-03-06T02:53:34.932Z,87.81
2019-03-06T02:54:34.895Z,87.50
2019-03-06T02:55:34.940Z,86.83
2019-03-06T02:56:34.876Z,86.98
2019-03-06T02:57:34.872Z,87.60
2019-03-06T02:58:34.854Z,87.71
2019-03-06T02:59:34.858Z,87.81
2019-03-06T03:00:34.918Z,87.92
2019-03-06T03:01:34.826Z,87.50
2019-03-06T03:02:34.820Z,87.19
2019-03-06T03:03:34.799Z,87.19
2019-03-06T03:04:34.790Z,87.92
2019-03-06T03:05:34.806Z,87.81
2019-03-06T03:06:34.773Z,88.12
2019-03-06T03:07:34.750Z,88.02
2019-03-06T03:08:34.785Z,87.92
2019-03-06T03:09:34.746Z,87.92
2019-03-06T03:10:34.761Z,87.81
2019-03-06T03:11:34.719Z,88.54
2019-03-06T03:12:34.701Z,88.12
2019-03-06T03:13:34.704Z,88.12
2019-03-06T03:14:34.681Z,88.02
2019-03-06T03:15:34.692Z,88.02
2019-03-06T03:16:34.664Z,88.33
2019-03-06T03:17:34.664Z,87.71
2019-03-06T03:18:34.636Z,87.92
2019-03-06T03:19:34.627Z,87.92
2019-03-06T03:20:34.634Z,88.23
2019-03-06T03:21:34.595Z,87.40
2019-03-06T03:22:34.604Z,88.12
2019-03-06T03:23:34.578Z,88.23
2019-03-06T03:24:34.566Z,88.54
2019-03-06T03:25:34.555Z,88.54
2019-03-06T03:26:34.572Z,88.43
2019-03-06T03:27:34.530Z,88.23
2019-03-06T03:28:34.523Z,87.92
2019-03-06T03:29:34.506Z,88.02
2019-03-06T03:30:34.495Z,88.23
2019-03-06T03:31:34.511Z,88.43
2019-03-06T03:32:34.477Z,88.37
2019-03-06T03:33:34.470Z,88.27
2019-03-06T03:34:34.457Z,88.33
2019-03-06T03:35:34.440Z,88.79
2019-03-06T03:36:34.454Z,88.68
2019-03-06T03:37:34.421Z,88.64
2019-03-06T03:38:34.403Z,88.79
2019-03-06T03:39:34.411Z,88.58
2019-03-06T03:40:34.385Z,88.89
2019-03-06T03:41:34.411Z,88.27
2019-03-06T03:42:34.361Z,88.68
2019-03-06T03:43:34.389Z,88.68
2019-03-06T03:44:34.344Z,88.48
2019-03-06T03:45:34.341Z,88.68
2019-03-06T03:46:34.337Z,89.73
2019-03-06T03:47:34.307Z,89.41
2019-03-06T03:48:34.359Z,89.31
2019-03-06T03:49:34.300Z,89.31
2019-03-06T03:50:34.273Z,89.20
2019-03-06T03:51:34.291Z,89.41
2019-03-06T03:52:34.257Z,89.94
2019-03-06T03:53:34.236Z,90.04
2019-03-06T03:54:34.233Z,89.83
2019-03-06T03:55:34.220Z,89.62
2019-03-06T03:56:34.212Z,89.83
2019-03-06T03:57:34.226Z,89.69
2019-03-06T03:58:34.185Z,89.73
2019-03-06T03:59:34.174Z,89.79
2019-03-06T04:00:34.165Z,89.52
2019-03-06T04:01:34.153Z,89.41
2019-03-06T04:02:34.205Z,89.31
2019-03-06T04:03:34.131Z,89.48
2019-03-06T04:04:34.133Z,89.20
2019-03-06T04:05:34.109Z,89.31
2019-03-06T04:06:34.095Z,89.73
2019-03-06T04:07:34.103Z,89.69
2019-03-06T04:08:34.076Z,89.94
2019-03-06T04:09:34.072Z,89.83
2019-03-06T04:10:34.046Z,89.83
2019-03-06T04:11:34.037Z,89.20
2019-03-06T04:12:34.386Z,89.20
2019-03-06T04:13:34.017Z,89.20
2019-03-06T04:14:34.013Z,89.31
2019-03-06T04:15:34.006Z,89.31
2019-03-06T04:16:34.001Z,89.83
2019-03-06T04:17:33.995Z,89.41
2019-03-06T04:18:33.969Z,89.52
2019-03-06T04:19:33.954Z,89.83
2019-03-06T04:20:33.946Z,89.41
2019-03-06T04:21:33.929Z,89.20
2019-03-06T04:22:33.936Z,89.56
2019-03-06T04:23:33.908Z,89.83
2019-03-06T04:24:33.896Z,89.56
2019-03-06T04:25:33.894Z,89.73
2019-03-06T04:26:33.884Z,89.52
2019-03-06T04:27:33.876Z,89.83
2019-03-06T04:28:33.851Z,89.56
2019-03-06T04:29:33.847Z,89.76
2019-03-06T04:30:33.831Z,89.76
2019-03-06T04:31:33.822Z,89.98
2019-03-06T04:32:33.824Z,89.76
2019-03-06T04:33:33.792Z,89.87
2019-03-06T04:34:33.790Z,89.87
2019-03-06T04:35:33.776Z,89.98
2019-03-06T04:36:33.766Z,89.76
2019-03-06T04:37:33.781Z,90.39
2019-03-06T04:38:33.743Z,90.29
2019-03-06T04:39:33.735Z,90.39
2019-03-06T04:40:33.711Z,90.29
2019-03-06T04:41:33.707Z,90.08
2019-03-06T04:42:33.703Z,90.22
2019-03-06T04:43:33.703Z,90.29
2019-03-06T04:44:33.682Z,90.91
2019-03-06T04:45:33.662Z,91.96
2019-03-06T04:46:33.652Z,91.85
2019-03-06T04:47:33.636Z,90.81
2019-03-06T04:48:33.652Z,90.91
2019-03-06T04:49:33.617Z,90.91
2019-03-06T04:50:33.602Z,90.85
2019-03-06T04:51:33.593Z,91.85
2019-03-06T04:52:33.585Z,91.58
2019-03-06T04:53:33.588Z,91.47
2019-03-06T04:54:33.567Z,91.64
2019-03-06T04:55:33.551Z,91.37
2019-03-06T04:56:33.543Z,91.22
2019-03-06T04:57:33.530Z,91.53
2019-03-06T04:58:33.531Z,91.43
2019-03-06T04:59:33.513Z,91.78
2019-03-06T05:00:33.511Z,91.96
2019-03-06T05:01:33.484Z,91.43
2019-03-06T05:02:33.471Z,91.85
2019-03-06T05:03:33.478Z,91.43
2019-03-06T05:04:33.448Z,91.43
2019-03-06T05:05:33.439Z,91.89
2019-03-06T05:06:33.450Z,91.33
2019-03-06T05:07:33.412Z,91.37
2019-03-06T05:08:33.430Z,91.68
2019-03-06T05:09:33.395Z,91.64
2019-03-06T05:10:33.384Z,92.21
2019-03-06T05:11:33.375Z,91.96
2019-03-06T05:12:33.358Z,92.10
2019-03-06T05:13:33.387Z,91.78
2019-03-06T05:14:33.341Z,91.75
2019-03-06T05:15:33.324Z,92.16
2019-03-06T05:16:33.320Z,92.06
2019-03-06T05:17:33.305Z,92.31
2019-03-06T05:18:33.322Z,91.89
2019-03-06T05:19:33.284Z,92.10
2019-03-06T05:20:33.269Z,92.00
2019-03-06T05:21:33.263Z,91.89
2019-03-06T05:22:33.250Z,92.31
2019-03-06T05:23:33.248Z,92.52
2019-03-06T05:24:33.251Z,92.31
2019-03-06T05:25:33.223Z,92.00
2019-03-06T05:26:33.200Z,92.31
2019-03-06T05:27:33.194Z,92.21
2019-03-06T05:28:33.180Z,92.21
2019-03-06T05:29:33.197Z,92.52
2019-03-06T05:30:33.157Z,92.31
2019-03-06T05:31:33.147Z,92.00
2019-03-06T05:32:33.140Z,92.10
2019-03-06T05:33:33.126Z,92.10
2019-03-06T05:34:33.138Z,92.31
2019-03-06T05:35:33.126Z,92.41
2019-03-06T05:36:33.090Z,92.41
2019-03-06T05:37:33.085Z,92.00
2019-03-06T05:38:33.070Z,92.52
2019-03-06T05:39:33.083Z,92.52
2019-03-06T05:40:33.048Z,92.41
2019-03-06T05:41:33.040Z,92.52
2019-03-06T05:42:33.030Z,92.52
2019-03-06T05:43:33.016Z,92.62
2019-03-06T05:44:33.024Z,92.93
2019-03-06T05:45:32.997Z,92.62
2019-03-06T05:46:32.994Z,92.62
2019-03-06T05:47:32.968Z,92.72
2019-03-06T05:48:32.955Z,92.62
2019-03-06T05:49:32.970Z,92.83
2019-03-06T05:50:32.952Z,92.72
2019-03-06T05:51:32.941Z,92.31
2019-03-06T05:52:32.925Z,92.93
2019-03-06T05:53:32.904Z,92.83
2019-03-06T05:54:32.961Z,92.83
2019-03-06T05:55:32.946Z,92.72
2019-03-06T05:56:32.869Z,92.83
2019-03-06T05:57:32.869Z,92.62
2019-03-06T05:58:32.878Z,92.93
2019-03-06T05:59:32.876Z,92.58
2019-03-06T06:00:32.824Z,92.83
2019-03-06T06:01:32.813Z,93.04
2019-03-06T06:02:32.805Z,92.41
2019-03-06T06:03:32.808Z,92.89
2019-03-06T06:04:32.785Z,92.58
2019-03-06T06:05:32.797Z,92.62
2019-03-06T06:06:32.774Z,92.52
2019-03-06T06:07:32.751Z,92.52
2019-03-06T06:08:32.740Z,92.72
2019-03-06T06:09:32.730Z,92.52
2019-03-06T06:10:32.741Z,92.62
2019-03-06T06:11:32.702Z,92.47
2019-03-06T06:12:32.696Z,92.47
2019-03-06T06:13:32.702Z,92.16
2019-03-06T06:14:32.670Z,92.27
2019-03-06T06:15:32.684Z,91.96
2019-03-06T06:16:32.655Z,92.16
2019-03-06T06:17:32.642Z,92.58
2019-03-06T06:18:32.623Z,91.68
2019-03-06T06:19:32.635Z,91.78
2019-03-06T06:20:32.621Z,92.41
2019-03-06T06:21:32.595Z,92.27
2019-03-06T06:22:32.579Z,92.47
2019-03-06T06:23:32.574Z,92.47
2019-03-06T06:24:32.560Z,92.47
2019-03-06T06:25:32.565Z,92.47
2019-03-06T06:26:32.540Z,92.37
2019-03-06T06:27:32.526Z,92.27
2019-03-06T06:28:32.518Z,91.75
2019-03-06T06:29:32.504Z,92.16
2019-03-06T06:30:32.515Z,92.27
2019-03-06T06:31:32.478Z,92.37
2019-03-06T06:32:33.049Z,92.58
2019-03-06T06:33:32.458Z,92.37
2019-03-06T06:34:32.445Z,92.47
2019-03-06T06:35:32.471Z,91.96
2019-03-06T06:36:32.434Z,92.27
2019-03-06T06:37:32.421Z,92.27
2019-03-06T06:38:32.406Z,92.33
2019-03-06T06:39:32.393Z,92.37
2019-03-06T06:40:32.380Z,92.47
2019-03-06T06:41:32.391Z,92.58
2019-03-06T06:42:32.356Z,92.58
2019-03-06T06:43:32.350Z,92.37
2019-03-06T06:44:32.338Z,92.33
2019-03-06T06:45:32.321Z,92.02
2019-03-06T06:46:32.370Z,92.22
2019-03-06T06:47:32.303Z,92.43
2019-03-06T06:48:32.285Z,92.43
2019-03-06T06:49:32.281Z,92.22
2019-03-06T06:50:32.266Z,92.12
2019-03-06T06:51:32.274Z,92.18
2019-03-06T06:52:32.245Z,91.81
2019-03-06T06:53:32.239Z,91.66
2019-03-06T06:54:32.222Z,91.87
2019-03-06T06:55:32.216Z,91.87
2019-03-06T06:56:32.228Z,92.08
2019-03-06T06:57:32.189Z,91.66
2019-03-06T06:58:32.177Z,91.56
2019-03-06T06:59:32.165Z,91.66
2019-03-06T07:00:32.157Z,91.25
2019-03-06T07:01:32.165Z,91.46
2019-03-06T07:02:32.138Z,91.56
2019-03-06T07:03:32.124Z,91.35
2019-03-06T07:04:32.117Z,91.10
2019-03-06T07:05:32.100Z,90.69
2019-03-06T07:06:32.107Z,90.23
2019-03-06T07:07:32.080Z,90.33
2019-03-06T07:08:32.067Z,90.37
2019-03-06T07:09:32.057Z,89.92
2019-03-06T07:10:32.048Z,89.81
2019-03-06T07:11:32.055Z,89.56
2019-03-06T07:12:32.023Z,89.39
2019-03-06T07:13:32.014Z,89.56
2019-03-06T07:14:32.003Z,89.56
2019-03-06T07:15:31.987Z,88.98
2019-03-06T07:16:31.994Z,89.15
2019-03-06T07:17:31.969Z,89.25
2019-03-06T07:18:32.003Z,89.04
2019-03-06T07:19:31.940Z,89.46
2019-03-06T07:20:31.932Z,88.52
2019-03-06T07:21:31.943Z,88.59
2019-03-06T07:22:31.909Z,88.21
2019-03-06T07:23:31.905Z,87.96
2019-03-06T07:24:31.892Z,88.17
2019-03-06T07:25:31.881Z,87.65
2019-03-06T07:26:31.881Z,87.76
2019-03-06T07:27:31.858Z,87.96
2019-03-06T07:28:31.843Z,87.71
2019-03-06T07:29:31.831Z,87.82
2019-03-06T07:30:31.825Z,86.57
2019-03-06T07:31:31.837Z,87.30
2019-03-06T07:32:31.806Z,87.03
2019-03-06T07:33:31.805Z,87.30
2019-03-06T07:34:31.775Z,87.51
2019-03-06T07:35:31.765Z,87.19
2019-03-06T07:36:31.752Z,86.05
2019-03-06T07:37:31.759Z,86.22
2019-03-06T07:38:31.733Z,86.12
2019-03-06T07:39:32.235Z,86.22
2019-03-06T07:40:31.711Z,85.46
2019-03-06T07:41:31.697Z,85.87
2019-03-06T07:42:31.714Z,85.66
2019-03-06T07:43:31.675Z,85.56
2019-03-06T07:44:31.667Z,85.35
2019-03-06T07:45:31.653Z,84.73
2019-03-06T07:46:31.643Z,84.52
2019-03-06T07:47:31.651Z,84.80
2019-03-06T07:48:31.684Z,84.59
2019-03-06T07:49:31.611Z,84.80
2019-03-06T07:50:31.609Z,84.59
2019-03-06T07:51:32.004Z,84.55
2019-03-06T07:52:31.589Z,84.03
2019-03-06T07:53:31.578Z,83.83
2019-03-06T07:54:31.559Z,84.07
2019-03-06T07:55:31.541Z,84.48
2019-03-06T07:56:31.529Z,83.62
2019-03-06T07:57:31.543Z,83.83
2019-03-06T07:58:31.508Z,83.62
2019-03-06T07:59:31.497Z,83.20
2019-03-06T08:00:31.492Z,83.31
2019-03-06T08:01:31.470Z,83.51
2019-03-06T08:02:31.488Z,83.62
2019-03-06T08:03:31.454Z,83.31
2019-03-06T08:04:31.463Z,83.72
2019-03-06T08:05:31.430Z,83.62
2019-03-06T08:06:31.426Z,83.51
2019-03-06T08:07:31.417Z,83.51
2019-03-06T08:08:31.418Z,83.89
2019-03-06T08:09:31.397Z,83.41
2019-03-06T08:10:31.374Z,83.37
2019-03-06T08:11:31.367Z,82.75
2019-03-06T08:12:31.353Z,82.23
2019-03-06T08:13:31.359Z,82.75
2019-03-06T08:14:31.332Z,83.10
2019-03-06T08:15:31.315Z,83.10
2019-03-06T08:16:31.318Z,83.72
2019-03-06T08:17:31.297Z,83.78
2019-03-06T08:18:31.300Z,83.16
2019-03-06T08:19:31.285Z,82.71
2019-03-06T08:20:31.262Z,82.40
2019-03-06T08:21:31.251Z,82.19
2019-03-06T08:22:31.241Z,82.40
2019-03-06T08:23:31.249Z,81.64
2019-03-06T08:24:31.216Z,81.33
2019-03-06T08:25:31.211Z,81.12
2019-03-06T08:26:31.201Z,81.43
2019-03-06T08:27:31.190Z,81.43
2019-03-06T08:28:31.193Z,81.23
2019-03-06T08:29:31.162Z,81.54
2019-03-06T08:30:31.154Z,80.88
2019-03-06T08:31:31.140Z,80.29
2019-03-06T08:32:31.157Z,80.77
2019-03-06T08:33:31.141Z,81.09
2019-03-06T08:34:31.104Z,80.88
2019-03-06T08:35:31.090Z,81.35
2019-03-06T08:36:31.085Z,81.05
2019-03-06T08:37:31.072Z,79.70
2019-03-06T08:38:31.099Z,79.46
2019-03-06T08:39:31.065Z,79.36
2019-03-06T08:40:31.033Z,78.84
2019-03-06T08:41:31.031Z,78.94
2019-03-06T08:42:32.581Z,78.59
2019-03-06T08:43:31.018Z,78.59
2019-03-06T08:44:30.990Z,78.25
2019-03-06T08:45:30.978Z,78.87
2019-03-06T08:46:30.971Z,78.25
2019-03-06T08:47:30.964Z,77.39
2019-03-06T08:48:30.976Z,76.77
2019-03-06T08:49:30.937Z,76.73
2019-03-06T08:50:30.930Z,75.84
2019-03-06T08:51:30.915Z,76.67
2019-03-06T08:52:30.902Z,76.46
2019-03-06T08:53:30.937Z,76.67
2019-03-06T08:54:30.882Z,76.32
2019-03-06T08:55:30.874Z,76.29
2019-03-06T08:56:30.865Z,74.74
2019-03-06T08:57:30.847Z,74.02
2019-03-06T08:58:30.835Z,73.57
2019-03-06T08:59:30.849Z,73.68
2019-03-06T09:00:30.816Z,73.47
2019-03-06T09:01:30.813Z,73.57
2019-03-06T09:02:30.791Z,74.40
2019-03-06T09:03:30.783Z,74.19
2019-03-06T09:04:30.791Z,73.64
2019-03-06T09:05:31.108Z,73.02
2019-03-06T09:06:30.745Z,73.68
2019-03-06T09:07:30.736Z,73.88
2019-03-06T09:08:30.724Z,73.78
2019-03-06T09:09:30.755Z,73.64
2019-03-06T09:10:30.715Z,72.96
2019-03-06T09:11:30.692Z,72.61
2019-03-06T09:12:30.675Z,72.51
2019-03-06T09:13:30.672Z,72.68
2019-03-06T09:14:30.678Z,72.88
2019-03-06T09:15:30.647Z,72.58
2019-03-06T09:16:30.636Z,72.47
2019-03-06T09:17:30.619Z,72.47
2019-03-06T09:18:30.611Z,72.37
2019-03-06T09:19:30.632Z,72.09
2019-03-06T09:20:36.151Z,72.41
2019-03-06T09:21:31.589Z,72.20
2019-03-06T09:22:30.565Z,72.27
2019-03-06T09:23:30.553Z,72.78
2019-03-06T09:24:30.559Z,72.58
2019-03-06T09:25:30.537Z,72.58
2019-03-06T09:26:30.520Z,71.65
2019-03-06T09:27:30.509Z,72.37
2019-03-06T09:28:30.546Z,72.13
2019-03-06T09:29:30.504Z,71.62
2019-03-06T09:30:30.478Z,71.00
2019-03-06T09:31:30.468Z,71.37
2019-03-06T09:32:30.452Z,70.76
2019-03-06T09:33:30.450Z,70.94
2019-03-06T09:34:30.447Z,70.21
2019-03-06T09:35:30.419Z,70.21
2019-03-06T09:36:30.421Z,69.32
2019-03-06T09:37:30.401Z,69.73
2019-03-06T09:38:30.392Z,70.25
2019-03-06T09:39:30.401Z,69.39
2019-03-06T09:40:30.367Z,69.80
2019-03-06T09:41:30.357Z,69.60
2019-03-06T09:42:30.353Z,69.29
2019-03-06T09:43:30.331Z,69.29
2019-03-06T09:44:30.339Z,69.49
2019-03-06T09:45:30.306Z,69.80
2019-03-06T09:46:30.300Z,69.09
2019-03-06T09:47:30.293Z,68.67
2019-03-06T09:48:30.274Z,68.85
2019-03-06T09:49:30.299Z,68.85
2019-03-06T09:50:30.252Z,68.10
2019-03-06T09:51:30.247Z,66.66
2019-03-06T09:52:30.230Z,66.66
2019-03-06T09:53:30.221Z,66.14
2019-03-06T09:54:30.228Z,66.25
2019-03-06T09:55:30.200Z,66.86
2019-03-06T09:56:30.187Z,66.63
2019-03-06T09:57:30.179Z,66.19
2019-03-06T09:58:30.162Z,66.28
2019-03-06T09:59:30.213Z,64.20
2019-03-06T10:00:30.139Z,62.95
2019-03-06T10:01:30.131Z,62.19
2019-03-06T10:02:30.130Z,61.79
2019-03-06T10:03:30.108Z,62.43
2019-03-06T10:04:30.125Z,61.69
2019-03-06T10:05:30.096Z,61.55
2019-03-06T10:06:30.076Z,61.66
2019-03-06T10:07:30.060Z,61.96
2019-03-06T10:08:30.051Z,61.11
2019-03-06T10:09:30.067Z,61.22
2019-03-06T10:10:30.037Z,60.75
2019-03-06T10:11:30.017Z,59.70
2019-03-06T10:12:30.011Z,58.42
2019-03-06T10:13:29.996Z,57.24
2019-03-06T10:14:29.994Z,56.40
2019-03-06T10:15:29.971Z,54.64
2019-03-06T10:16:29.961Z,53.50
2019-03-06T10:17:30.287Z,53.70
2019-03-06T10:18:29.937Z,53.29
2019-03-06T10:19:29.950Z,52.76
2019-03-06T10:20:29.921Z,51.03
2019-03-06T10:21:29.904Z,50.92
2019-03-06T10:22:29.899Z,51.03
2019-03-06T10:23:29.884Z,51.10
2019-03-06T10:24:29.897Z,50.78
2019-03-06T10:25:32.068Z,50.24
2019-03-06T10:26:29.847Z,49.10
2019-03-06T10:27:29.853Z,48.36
2019-03-06T10:28:29.824Z,47.83
2019-03-06T10:29:29.811Z,46.70
2019-03-06T10:30:29.825Z,47.02
2019-03-06T10:31:29.799Z,47.41
2019-03-06T10:32:29.780Z,46.59
2019-03-06T10:33:29.771Z,45.66
2019-03-06T10:34:29.753Z,46.19
2019-03-06T10:35:29.773Z,45.58
2019-03-06T10:36:29.733Z,46.13
2019-03-06T10:37:29.724Z,46.74
2019-03-06T10:38:29.710Z,47.33
2019-03-06T10:39:29.701Z,46.19
2019-03-06T10:40:29.711Z,45.25
2019-03-06T10:41:29.678Z,44.73
2019-03-06T10:42:29.660Z,44.40
2019-03-06T10:43:29.651Z,43.59
2019-03-06T10:44:30.083Z,43.89
2019-03-06T10:45:29.658Z,43.77
2019-03-06T10:46:29.619Z,42.63
2019-03-06T10:47:29.611Z,41.72
2019-03-06T10:48:29.603Z,41.95
2019-03-06T10:49:29.588Z,43.08
2019-03-06T10:50:31.206Z,44.04
2019-03-06T10:51:31.081Z,43.41
2019-03-06T10:52:29.547Z,42.17
2019-03-06T10:53:29.544Z,42.78
2019-03-06T10:54:29.539Z,41.64
2019-03-06T10:55:29.536Z,42.25
2019-03-06T10:56:29.511Z,41.42
2019-03-06T10:57:29.495Z,39.88
2019-03-06T10:58:29.483Z,39.46
2019-03-06T10:59:29.490Z,39.56
2019-03-06T11:00:29.476Z,38.82
2019-03-06T11:01:29.452Z,38.59
2019-03-06T11:02:29.435Z,38.90
2019-03-06T11:03:29.426Z,38.15
2019-03-06T11:04:29.414Z,37.55
2019-03-06T11:05:29.422Z,38.46
2019-03-06T11:06:29.391Z,37.46
2019-03-06T11:07:29.381Z,37.46
2019-03-06T11:08:29.370Z,37.72
2019-03-06T11:09:29.357Z,38.55
2019-03-06T11:10:29.378Z,38.89
2019-03-06T11:11:29.342Z,39.09
2019-03-06T11:12:29.324Z,38.89
2019-03-06T11:13:29.316Z,39.90
2019-03-06T11:14:29.301Z,38.57
2019-03-06T11:15:29.308Z,38.53
2019-03-06T11:16:30.128Z,37.52
2019-03-06T11:17:29.266Z,38.16
2019-03-06T11:18:29.259Z,39.55
2019-03-06T11:19:29.271Z,40.97
2019-03-06T11:20:29.265Z,39.53
2019-03-06T11:21:29.222Z,40.97
2019-03-06T11:22:29.214Z,40.45
2019-03-06T11:23:29.197Z,40.65
2019-03-06T11:24:29.203Z,41.60
2019-03-06T11:25:29.208Z,41.68
2019-03-06T11:26:29.165Z,41.80
2019-03-06T11:27:29.158Z,41.09
2019-03-06T11:28:29.144Z,40.89
2019-03-06T11:29:29.140Z,40.08
2019-03-06T11:30:29.136Z,41.09
2019-03-06T11:31:29.123Z,39.96
2019-03-06T11:32:29.099Z,40.08
2019-03-06T11:33:29.091Z,40.55
2019-03-06T11:34:29.077Z,38.91
2019-03-06T11:35:29.089Z,38.48
2019-03-06T11:36:29.054Z,38.30
2019-03-06T11:37:29.047Z,38.93
2019-03-06T11:38:29.031Z,38.81
2019-03-06T11:39:29.018Z,38.64
2019-03-06T11:40:29.032Z,38.60
2019-03-06T11:41:28.998Z,38.32
2019-03-06T11:42:28.987Z,38.64
2019-03-06T11:43:28.975Z,39.17
2019-03-06T11:44:28.962Z,38.68
2019-03-06T11:45:28.982Z,38.57
2019-03-06T11:46:28.937Z,37.52
2019-03-06T11:47:28.931Z,37.61
2019-03-06T11:48:28.921Z,37.02
2019-03-06T11:49:28.906Z,37.73
2019-03-06T11:50:28.913Z,38.32
2019-03-06T11:51:28.887Z,36.17
2019-03-06T11:52:28.875Z,36.66
2019-03-06T11:53:28.861Z,36.14
2019-03-06T11:54:28.858Z,34.92
2019-03-06T11:55:28.919Z,36.61
2019-03-06T11:56:28.827Z,36.93
2019-03-06T11:57:28.823Z,37.44
2019-03-06T11:58:28.806Z,36.82
2019-03-06T11:59:28.803Z,37.32
2019-03-06T12:00:28.785Z,37.81
2019-03-06T12:01:28.785Z,38.21
2019-03-06T12:02:28.762Z,37.73
2019-03-06T12:03:28.751Z,38.54
2019-03-06T12:04:28.737Z,38.88
2019-03-06T12:05:28.721Z,38.49
2019-03-06T12:06:28.729Z,39.91
2019-03-06T12:07:28.703Z,40.00
2019-03-06T12:08:28.692Z,37.74
2019-03-06T12:09:28.686Z,37.81
2019-03-06T12:10:28.670Z,36.94
2019-03-06T12:11:28.685Z,35.60
2019-03-06T12:12:28.645Z,35.46
2019-03-06T12:13:28.635Z,35.58
2019-03-06T12:14:28.635Z,35.57
2019-03-06T12:15:28.647Z,33.95
2019-03-06T12:16:28.615Z,34.12
2019-03-06T12:17:28.596Z,34.37
2019-03-06T12:18:28.578Z,32.46
2019-03-06T12:19:28.569Z,32.96
2019-03-06T12:20:28.555Z,32.64
2019-03-06T12:21:28.558Z,32.76
2019-03-06T12:22:28.535Z,32.75
2019-03-06T12:23:28.518Z,32.43
2019-03-06T12:24:28.511Z,31.79
2019-03-06T12:25:28.498Z,30.24
2019-03-06T12:26:28.500Z,29.22
2019-03-06T12:27:28.477Z,29.32
2019-03-06T12:28:28.466Z,29.72
2019-03-06T12:29:28.446Z,29.52
2019-03-06T12:30:28.440Z,29.24
2019-03-06T12:31:28.449Z,29.22
2019-03-06T12:32:28.418Z,29.71
2019-03-06T12:33:28.419Z,30.18
2019-03-06T12:34:28.401Z,31.12
2019-03-06T12:35:28.387Z,32.98
2019-03-06T12:36:28.395Z,34.32
2019-03-06T12:37:28.366Z,34.30
2019-03-06T12:38:28.355Z,33.58
2019-03-06T12:39:28.349Z,32.78
2019-03-06T12:40:28.330Z,32.46
2019-03-06T12:41:28.342Z,32.26
2019-03-06T12:42:28.304Z,33.50
2019-03-06T12:43:28.295Z,33.80
2019-03-06T12:44:28.293Z,34.12
2019-03-06T12:45:28.275Z,35.13
2019-03-06T12:46:28.282Z,35.13
2019-03-06T12:47:28.249Z,35.03
2019-03-06T12:48:28.246Z,33.78
2019-03-06T12:49:28.231Z,33.98
2019-03-06T12:50:28.218Z,34.28
2019-03-06T12:51:28.227Z,34.17
2019-03-06T12:52:28.193Z,34.19
2019-03-06T12:53:28.183Z,33.68